createdAt,value
2018-11-22T00:00:29.436Z,26.63
2018-11-22T00:02:58.428Z,26.83
2018-11-22T00:05:42.494Z,25.77
2018-11-22T00:08:07.583Z,26.07
2018-11-22T00:10:51.630Z,26.93
2018-11-22T00:13:16.741Z,25.93
2018-11-22T00:15:41.829Z,25.30
2018-11-22T00:18:07.055Z,25.93
2018-11-22T00:20:51.176Z,26.47
2018-11-22T00:23:35.237Z,26.80
2018-11-22T00:26:00.466Z,27.30
2018-11-22T00:28:25.552Z,26.97
2018-11-22T00:30:50.626Z,26.90
2018-11-22T00:33:15.732Z,27.60
2018-11-22T00:35:40.841Z,27.60
2018-11-22T00:38:05.919Z,27.43
2018-11-22T00:40:30.986Z,27.10
2018-11-22T00:43:15.036Z,26.80
2018-11-22T00:45:40.132Z,27.77
2018-11-22T00:48:05.271Z,27.30
2018-11-22T00:50:30.344Z,29.23
2018-11-22T00:52:55.498Z,28.50
2018-11-22T00:55:22.148Z,28.53
2018-11-22T00:57:47.930Z,29.23
2018-11-22T01:00:32.038Z,28.33
2018-11-22T01:05:33.798Z,27.50
2018-11-22T01:08:17.830Z,27.93
2018-11-22T01:10:42.955Z,28.00
2018-11-22T01:13:08.033Z,27.97
2018-11-22T01:15:33.119Z,27.97
2018-11-22T01:17:58.204Z,28.47
2018-11-22T01:20:24.560Z,28.40
2018-11-22T01:22:50.422Z,27.53
2018-11-22T01:25:16.525Z,27.77
2018-11-22T01:28:00.565Z,29.03
2018-11-22T01:30:26.485Z,27.77
2018-11-22T01:32:52.577Z,28.63
2018-11-22T01:35:18.572Z,28.87
2018-11-22T01:37:43.891Z,29.10
2018-11-22T01:40:11.318Z,28.80
2018-11-22T01:42:36.493Z,28.07
2018-11-22T01:45:01.794Z,28.70
2018-11-22T01:47:26.849Z,28.97
2018-11-22T01:52:47.569Z,27.53
2018-11-22T01:55:14.309Z,29.70
2018-11-22T01:57:39.792Z,29.37
2018-11-22T02:00:05.089Z,29.23
2018-11-22T02:02:30.222Z,30.20
2018-11-22T02:04:55.326Z,29.77
2018-11-22T02:07:20.438Z,29.10
2018-11-22T02:09:45.531Z,30.13
2018-11-22T02:12:10.652Z,31.73
2018-11-22T02:14:35.716Z,31.00
2018-11-22T02:17:00.856Z,29.60
2018-11-22T02:19:26.009Z,29.43
2018-11-22T02:21:51.117Z,29.83
2018-11-22T02:24:16.238Z,30.07
2018-11-22T02:27:00.410Z,29.07
2018-11-22T02:29:25.503Z,29.77
2018-11-22T02:31:50.601Z,30.00
2018-11-22T02:34:15.726Z,30.27
2018-11-22T02:36:59.799Z,30.80
2018-11-22T02:39:24.915Z,30.20
2018-11-22T02:41:49.982Z,30.23
2018-11-22T02:44:15.092Z,29.40
2018-11-22T02:46:40.223Z,30.23
2018-11-22T02:49:05.487Z,30.57
2018-11-22T02:51:30.620Z,29.10
2018-11-22T02:53:55.755Z,29.93
2018-11-22T02:56:20.868Z,30.20
2018-11-22T02:58:45.939Z,29.90
2018-11-22T03:01:11.019Z,30.73
2018-11-22T03:03:55.048Z,29.57
2018-11-22T03:06:39.116Z,29.27
2018-11-22T03:09:16.090Z,31.33
2018-11-22T03:11:41.552Z,28.67
2018-11-22T03:14:06.728Z,31.30
2018-11-22T03:16:31.835Z,31.50
2018-11-22T03:18:56.943Z,29.73
2018-11-22T03:21:22.046Z,30.53
2018-11-22T03:23:47.128Z,31.10
2018-11-22T03:28:48.875Z,31.73
2018-11-22T03:31:14.166Z,32.00
2018-11-22T03:33:39.247Z,31.53
2018-11-22T03:36:04.343Z,31.43
2018-11-22T03:38:29.497Z,30.60
2018-11-22T03:40:54.550Z,29.40
2018-11-22T03:43:38.380Z,31.10
2018-11-22T03:46:03.577Z,30.97
2018-11-22T03:48:28.679Z,31.43
2018-11-22T03:50:53.825Z,32.13
2018-11-22T03:53:18.920Z,31.23
2018-11-22T03:55:44.131Z,32.33
2018-11-22T03:58:09.197Z,30.37
2018-11-22T04:00:34.288Z,31.80
2018-11-22T04:02:59.346Z,31.77
2018-11-22T04:05:25.498Z,31.67
2018-11-22T04:07:50.578Z,31.17
2018-11-22T04:10:20.218Z,31.87
2018-11-22T04:12:45.311Z,32.07
2018-11-22T04:15:11.335Z,32.30
2018-11-22T04:17:36.537Z,31.73
2018-11-22T04:20:01.642Z,33.40
2018-11-22T04:22:26.765Z,30.80
2018-11-22T04:24:51.850Z,32.63
2018-11-22T04:27:16.993Z,32.67
2018-11-22T04:29:42.080Z,31.37
2018-11-22T04:32:07.304Z,31.93
2018-11-22T04:34:32.455Z,31.33
2018-11-22T04:36:57.577Z,30.93
2018-11-22T04:39:22.726Z,30.20
2018-11-22T04:42:06.777Z,31.23
2018-11-22T04:44:50.877Z,32.07
2018-11-22T04:47:15.973Z,30.80
2018-11-22T04:49:41.175Z,31.10
2018-11-22T04:52:06.446Z,30.93
2018-11-22T04:54:31.574Z,32.27
2018-11-22T04:56:56.707Z,32.20
2018-11-22T04:59:21.831Z,31.17
2018-11-22T05:04:30.610Z,31.20
2018-11-22T05:06:51.422Z,30.97
2018-11-22T05:09:16.535Z,31.30
2018-11-22T05:11:41.666Z,29.97
2018-11-22T05:14:06.972Z,31.90
2018-11-22T05:16:32.128Z,29.67
2018-11-22T05:18:57.242Z,32.03
2018-11-22T05:21:41.287Z,31.13
2018-11-22T05:24:18.247Z,29.57
2018-11-22T05:26:43.284Z,31.43
2018-11-22T05:29:12.476Z,30.83
2018-11-22T05:31:33.534Z,30.33
2018-11-22T05:33:58.618Z,31.83
2018-11-22T05:36:23.772Z,30.60
2018-11-22T05:38:48.894Z,30.57
2018-11-22T05:41:13.998Z,30.50
2018-11-22T05:43:39.094Z,30.83
2018-11-22T05:46:04.189Z,31.27
2018-11-22T05:48:29.229Z,30.57
2018-11-22T05:50:54.342Z,30.27
2018-11-22T05:53:19.406Z,29.73
2018-11-22T05:56:03.470Z,30.67
2018-11-22T05:58:28.536Z,30.90
2018-11-22T06:00:53.647Z,30.73
2018-11-22T06:03:18.722Z,31.87
2018-11-22T06:05:43.958Z,30.13
2018-11-22T06:08:09.035Z,31.33
2018-11-22T06:10:35.455Z,30.37
2018-11-22T06:13:08.319Z,31.83
2018-11-22T06:15:33.419Z,30.33
2018-11-22T06:18:17.484Z,31.23
2018-11-22T06:20:42.713Z,30.83
2018-11-22T06:23:07.801Z,29.83
2018-11-22T06:25:32.865Z,30.97
2018-11-22T06:27:58.456Z,30.30
2018-11-22T06:30:24.911Z,29.77
2018-11-22T06:32:51.464Z,29.40
2018-11-22T06:35:16.612Z,30.97
2018-11-22T06:37:41.747Z,29.80
2018-11-22T06:40:07.890Z,30.30
2018-11-22T06:42:32.989Z,29.13
2018-11-22T06:44:58.124Z,30.13
2018-11-22T06:47:23.981Z,30.00
2018-11-22T06:49:49.050Z,30.33
2018-11-22T06:52:14.170Z,30.40
2018-11-22T06:57:34.839Z,30.60
2018-11-22T07:00:37.545Z,29.27
2018-11-22T07:03:04.472Z,30.57
2018-11-22T07:05:29.528Z,31.17
2018-11-22T07:07:54.816Z,30.77
2018-11-22T07:10:20.155Z,32.73
2018-11-22T07:12:45.511Z,30.80
2018-11-22T07:15:11.193Z,31.00
2018-11-22T07:17:36.713Z,31.43
2018-11-22T07:20:14.926Z,30.20
2018-11-22T07:22:39.991Z,32.57
2018-11-22T07:25:05.278Z,30.53
2018-11-22T07:27:30.376Z,30.37
2018-11-22T07:29:55.482Z,30.20
2018-11-22T07:32:20.584Z,30.93
2018-11-22T07:34:45.742Z,31.50
2018-11-22T07:37:10.831Z,30.60
2018-11-22T07:39:35.979Z,31.73
2018-11-22T07:42:01.021Z,31.90
2018-11-22T07:44:26.199Z,31.07
2018-11-22T07:46:51.321Z,30.87
2018-11-22T07:49:16.423Z,30.23
2018-11-22T07:51:41.539Z,30.27
2018-11-22T07:54:06.908Z,31.23
2018-11-22T07:56:32.030Z,30.90
2018-11-22T07:58:57.191Z,30.77
2018-11-22T08:01:22.615Z,31.67
2018-11-22T08:03:47.702Z,31.20
2018-11-22T08:06:12.768Z,31.40
2018-11-22T08:08:37.831Z,30.70
2018-11-22T08:11:21.854Z,29.77
2018-11-22T08:13:46.932Z,32.20
2018-11-22T08:16:12.024Z,30.97
2018-11-22T08:18:37.121Z,30.30
2018-11-22T08:21:04.848Z,30.37
2018-11-22T08:23:27.315Z,31.47
2018-11-22T08:25:52.465Z,32.27
2018-11-22T08:28:17.589Z,30.93
2018-11-22T08:30:42.704Z,30.13
2018-11-22T08:33:07.810Z,31.53
2018-11-22T08:35:32.913Z,31.83
2018-11-22T08:37:58.013Z,30.33
2018-11-22T08:40:24.592Z,30.37
2018-11-22T08:42:55.114Z,30.47
2018-11-22T08:45:16.142Z,31.23
2018-11-22T08:47:41.209Z,31.33
2018-11-22T08:50:08.229Z,29.50
2018-11-22T08:52:33.409Z,30.03
2018-11-22T08:54:59.301Z,30.87
2018-11-22T08:57:24.500Z,32.03
2018-11-22T08:59:49.662Z,31.37
2018-11-22T09:02:14.800Z,30.57
2018-11-22T09:04:39.929Z,31.17
2018-11-22T09:07:04.989Z,31.07
2018-11-22T09:09:30.071Z,31.80
2018-11-22T09:11:55.219Z,31.50
2018-11-22T09:14:20.315Z,30.83
2018-11-22T09:16:45.372Z,30.13
2018-11-22T09:19:10.505Z,32.73
2018-11-22T09:21:35.584Z,32.37
2018-11-22T09:24:00.705Z,31.23
2018-11-22T09:26:26.014Z,31.23
2018-11-22T09:28:51.167Z,32.70
2018-11-22T09:31:16.195Z,32.30
2018-11-22T09:34:00.255Z,31.63
2018-11-22T09:36:25.359Z,31.53
2018-11-22T09:38:50.438Z,32.57
2018-11-22T09:41:18.309Z,31.63
2018-11-22T09:46:40.444Z,30.77
2018-11-22T09:49:05.627Z,31.90
2018-11-22T09:51:49.784Z,32.70
2018-11-22T09:54:14.931Z,32.13
2018-11-22T09:56:40.055Z,33.13
2018-11-22T09:59:05.228Z,34.10
2018-11-22T10:01:30.322Z,33.37
2018-11-22T10:03:55.357Z,33.30
2018-11-22T10:06:20.494Z,32.17
2018-11-22T10:08:45.580Z,31.63
2018-11-22T10:11:10.704Z,33.13
2018-11-22T10:13:54.809Z,32.90
2018-11-22T10:16:19.852Z,33.40
2018-11-22T10:18:45.091Z,33.10
2018-11-22T10:21:10.046Z,31.60
2018-11-22T10:23:35.118Z,32.10
2018-11-22T10:26:00.223Z,32.90
2018-11-22T10:28:25.287Z,33.70
2018-11-22T10:30:50.438Z,32.43
2018-11-22T10:33:15.510Z,32.53
2018-11-22T10:35:40.557Z,32.83
2018-11-22T10:38:06.008Z,33.63
2018-11-22T10:40:31.045Z,32.87
2018-11-22T10:43:14.919Z,33.10
2018-11-22T10:45:39.981Z,33.37
2018-11-22T10:48:07.177Z,34.20
2018-11-22T10:50:33.528Z,32.97
2018-11-22T10:52:58.629Z,32.77
2018-11-22T10:55:24.947Z,33.17
2018-11-22T10:57:53.894Z,33.23
2018-11-22T11:00:36.370Z,32.40
2018-11-22T11:03:20.185Z,32.60
2018-11-22T11:06:03.920Z,33.63
2018-11-22T11:08:30.126Z,31.27
2018-11-22T11:10:55.561Z,34.53
2018-11-22T11:13:20.803Z,34.17
2018-11-22T11:15:45.901Z,34.77
2018-11-22T11:18:11.265Z,34.43
2018-11-22T11:23:12.874Z,34.00
2018-11-22T11:25:37.971Z,33.70
2018-11-22T11:28:03.170Z,34.30
2018-11-22T11:30:28.279Z,33.27
2018-11-22T11:32:53.397Z,35.13
2018-11-22T11:35:19.845Z,34.70
2018-11-22T11:37:44.928Z,34.90
2018-11-22T11:40:24.260Z,33.97
2018-11-22T11:42:50.543Z,34.80
2018-11-22T11:45:15.728Z,36.70
2018-11-22T11:47:40.853Z,35.40
2018-11-22T11:50:26.164Z,34.77
2018-11-22T11:52:51.292Z,35.27
2018-11-22T11:55:17.938Z,36.33
2018-11-22T11:57:43.480Z,34.47
2018-11-22T12:00:48.224Z,35.77
2018-11-22T12:03:13.419Z,34.87
2018-11-22T12:05:38.494Z,35.70
2018-11-22T12:08:03.621Z,36.23
2018-11-22T12:10:47.659Z,37.07
2018-11-22T12:13:31.726Z,36.67
2018-11-22T12:16:15.778Z,35.30
2018-11-22T12:18:59.908Z,36.33
2018-11-22T12:21:25.001Z,36.63
2018-11-22T12:26:45.352Z,35.00
2018-11-22T12:29:10.437Z,36.37
2018-11-22T12:31:35.514Z,36.53
2018-11-22T12:34:20.282Z,36.90
2018-11-22T12:37:03.060Z,36.20
2018-11-22T12:39:28.140Z,37.03
2018-11-22T12:41:53.234Z,36.07
2018-11-22T12:44:18.347Z,35.77
2018-11-22T12:46:43.401Z,36.63
2018-11-22T12:49:08.495Z,36.90
2018-11-22T12:51:33.592Z,35.93
2018-11-22T12:53:58.707Z,37.87
2018-11-22T12:56:23.825Z,36.37
2018-11-22T12:59:07.855Z,36.47
2018-11-22T13:01:33.001Z,35.93
2018-11-22T13:03:58.063Z,37.90
2018-11-22T13:06:23.137Z,37.97
2018-11-22T13:09:07.210Z,35.70
2018-11-22T13:11:32.291Z,36.40
2018-11-22T13:13:57.381Z,37.63
2018-11-22T13:16:22.455Z,36.33
2018-11-22T13:18:59.590Z,37.03
2018-11-22T13:21:24.373Z,38.63
2018-11-22T13:23:49.471Z,38.70
2018-11-22T13:26:14.626Z,38.57
2018-11-22T13:28:39.678Z,36.60
2018-11-22T13:31:04.825Z,36.83
2018-11-22T13:33:30.493Z,36.67
2018-11-22T13:35:55.587Z,39.17
2018-11-22T13:38:20.671Z,37.20
2018-11-22T13:45:59.456Z,36.27
2018-11-22T13:48:24.537Z,37.20
2018-11-22T13:50:49.667Z,38.17
2018-11-22T13:53:20.248Z,37.13
2018-11-22T13:55:39.894Z,36.23
2018-11-22T13:58:04.996Z,35.97
2018-11-22T14:00:31.406Z,35.37
2018-11-22T14:02:57.918Z,37.33
2018-11-22T14:05:22.980Z,36.20
2018-11-22T14:07:48.079Z,36.80
2018-11-22T14:10:32.355Z,36.63
2018-11-22T14:13:16.420Z,36.33
2018-11-22T14:15:41.474Z,36.63
2018-11-22T14:18:07.176Z,36.13
2018-11-22T14:20:33.694Z,35.40
2018-11-22T14:22:58.756Z,35.77
2018-11-22T14:25:23.868Z,35.13
2018-11-22T14:27:49.998Z,36.03
2018-11-22T14:30:16.417Z,36.03
2018-11-22T14:32:42.255Z,36.67
2018-11-22T14:35:08.476Z,36.17
2018-11-22T14:37:33.589Z,35.60
2018-11-22T14:40:27.885Z,37.00
2018-11-22T14:43:11.944Z,35.73
2018-11-22T14:45:37.043Z,34.73
2018-11-22T14:48:03.216Z,35.83
2018-11-22T14:50:51.741Z,35.70
2018-11-22T14:53:18.571Z,34.90
2018-11-22T14:55:43.699Z,35.17
2018-11-22T14:58:09.440Z,37.10
2018-11-22T15:00:34.521Z,36.67
2018-11-22T15:02:59.631Z,36.57
2018-11-22T15:05:43.651Z,36.37
2018-11-22T15:08:08.885Z,36.77
2018-11-22T15:10:52.936Z,35.77
2018-11-22T15:13:18.115Z,35.37
2018-11-22T15:15:43.170Z,36.43
2018-11-22T15:18:19.971Z,36.80
2018-11-22T15:20:45.061Z,34.97
2018-11-22T15:23:10.158Z,35.33
2018-11-22T15:25:35.244Z,36.13
2018-11-22T15:28:00.324Z,35.67
2018-11-22T15:30:26.799Z,35.83
2018-11-22T15:32:51.906Z,36.40
2018-11-22T15:35:18.224Z,35.97
2018-11-22T15:37:43.647Z,35.53
2018-11-22T15:40:11.181Z,35.40
2018-11-22T15:42:36.356Z,35.83
2018-11-22T15:45:01.551Z,35.97
2018-11-22T15:47:45.802Z,36.17
2018-11-22T15:50:30.141Z,36.03
2018-11-22T15:52:55.223Z,34.57
2018-11-22T15:58:15.935Z,35.50
2018-11-22T16:00:41.037Z,35.07
2018-11-22T16:03:06.157Z,35.13
2018-11-22T16:05:31.758Z,34.00
2018-11-22T16:07:56.949Z,35.57
2018-11-22T16:10:26.932Z,33.90
2018-11-22T16:12:49.562Z,34.57
2018-11-22T16:15:54.121Z,35.13
2018-11-22T16:18:19.218Z,32.77
2018-11-22T16:20:55.495Z,35.47
2018-11-22T16:23:20.669Z,34.90
2018-11-22T16:25:45.831Z,34.93
2018-11-22T16:28:29.968Z,34.27
2018-11-22T16:30:55.054Z,34.63
2018-11-22T16:33:20.197Z,34.43
2018-11-22T16:35:45.291Z,34.33
2018-11-22T16:38:10.382Z,35.90
2018-11-22T16:40:35.583Z,33.77
2018-11-22T16:43:01.975Z,35.93
2018-11-22T16:45:45.916Z,35.50
2018-11-22T16:48:12.464Z,34.93
2018-11-22T16:50:38.730Z,36.13
2018-11-22T16:53:03.835Z,35.27
2018-11-22T16:55:29.096Z,36.83
2018-11-22T17:00:40.296Z,35.97
2018-11-22T17:03:07.790Z,36.37
2018-11-22T17:05:51.826Z,36.33
2018-11-22T17:08:16.964Z,35.40
2018-11-22T17:10:42.542Z,35.83
2018-11-22T17:13:07.868Z,35.83
2018-11-22T17:15:37.540Z,36.33
2018-11-22T17:18:03.170Z,36.27
2018-11-22T17:20:29.260Z,36.37
2018-11-22T17:22:54.795Z,36.73
2018-11-22T17:25:38.625Z,35.37
2018-11-22T17:28:22.694Z,33.90
2018-11-22T17:30:48.272Z,36.60
2018-11-22T17:33:13.410Z,35.00
2018-11-22T17:35:38.927Z,36.83
2018-11-22T17:38:05.190Z,36.67
2018-11-22T17:43:06.766Z,35.57
2018-11-22T17:45:36.164Z,35.97
2018-11-22T17:48:01.373Z,37.03
2018-11-22T17:50:28.561Z,35.87
2018-11-22T17:52:53.738Z,35.70
2018-11-22T17:55:20.454Z,36.40
2018-11-22T17:57:45.553Z,35.00
2018-11-22T18:00:39.000Z,35.73
2018-11-22T18:03:05.021Z,35.50
2018-11-22T18:05:30.189Z,37.50
2018-11-22T18:07:55.329Z,35.80
2018-11-22T18:10:39.136Z,38.87
2018-11-22T18:13:04.226Z,36.13
2018-11-22T18:15:30.614Z,36.40
2018-11-22T18:17:56.368Z,37.10
2018-11-22T18:25:37.144Z,36.30
2018-11-22T18:28:02.438Z,34.63
2018-11-22T18:30:46.532Z,37.00
2018-11-22T18:33:11.628Z,36.07
2018-11-22T18:35:36.758Z,35.93
2018-11-22T18:38:01.832Z,35.80
2018-11-22T18:40:45.648Z,36.60
2018-11-22T18:43:10.755Z,38.30
2018-11-22T18:50:48.807Z,36.23
2018-11-22T18:53:13.985Z,37.83
2018-11-22T18:55:39.006Z,36.27
2018-11-22T18:58:04.107Z,36.67
2018-11-22T19:00:33.546Z,38.43
2018-11-22T19:05:55.377Z,37.57
2018-11-22T19:08:39.436Z,36.23
2018-11-22T19:11:04.608Z,36.50
2018-11-22T19:13:29.700Z,37.83
2018-11-22T19:15:54.766Z,37.73
2018-11-22T19:18:38.855Z,37.70
2018-11-22T19:21:03.956Z,37.13
2018-11-22T19:23:29.108Z,38.33
2018-11-22T19:26:05.500Z,36.20
2018-11-22T19:28:30.637Z,37.50
2018-11-22T19:30:55.762Z,37.73
2018-11-22T19:33:21.249Z,36.73
2018-11-22T19:35:48.008Z,38.37
2018-11-22T19:38:13.142Z,38.70
2018-11-22T19:40:39.249Z,39.47
2018-11-22T19:43:05.453Z,35.93
2018-11-22T19:45:41.463Z,37.00
2018-11-22T19:48:25.546Z,37.77
2018-11-22T19:51:09.721Z,37.67
2018-11-22T19:53:34.857Z,37.70
2018-11-22T19:56:00.028Z,38.07
2018-11-22T19:58:25.215Z,38.00
2018-11-22T20:00:50.356Z,37.53
2018-11-22T20:03:15.552Z,38.23
2018-11-22T20:05:41.534Z,39.07
2018-11-22T20:08:08.370Z,38.23
2018-11-22T20:10:52.191Z,38.60
2018-11-22T20:13:17.333Z,39.57
2018-11-22T20:15:42.489Z,38.17
2018-11-22T20:18:08.843Z,38.90
2018-11-22T20:20:33.940Z,38.60
2018-11-22T20:22:59.198Z,38.53
2018-11-22T20:25:24.584Z,39.20
2018-11-22T20:27:50.498Z,37.63
2018-11-22T20:30:36.829Z,38.13
2018-11-22T20:33:02.126Z,37.63
2018-11-22T20:35:27.230Z,37.33
2018-11-22T20:37:52.827Z,39.27
2018-11-22T20:40:19.294Z,37.27
2018-11-22T20:42:44.429Z,38.63
2018-11-22T20:45:11.632Z,37.00
2018-11-22T20:47:36.788Z,38.77
2018-11-22T20:50:01.879Z,38.87
2018-11-22T20:52:27.051Z,37.57
2018-11-22T20:54:52.161Z,38.50
2018-11-22T20:57:17.308Z,38.37
2018-11-22T20:59:42.419Z,39.87
2018-11-22T21:02:07.548Z,36.70
2018-11-22T21:04:32.719Z,39.00
2018-11-22T21:06:57.898Z,40.07
2018-11-22T21:09:23.390Z,38.23
2018-11-22T21:11:48.487Z,40.00
2018-11-22T21:14:13.612Z,37.90
2018-11-22T21:16:38.737Z,38.80
2018-11-22T21:19:22.810Z,39.77
2018-11-22T21:21:47.945Z,39.37
2018-11-22T21:26:49.484Z,39.40
2018-11-22T21:29:14.647Z,39.30
2018-11-22T21:34:23.957Z,40.40
2018-11-22T21:36:49.078Z,38.23
2018-11-22T21:39:14.359Z,39.97
2018-11-22T21:41:39.434Z,40.83
2018-11-22T21:44:04.492Z,39.47
2018-11-22T21:46:48.301Z,39.83
2018-11-22T21:49:13.402Z,38.93
2018-11-22T21:54:15.208Z,41.27
2018-11-22T21:56:40.312Z,39.30
2018-11-22T21:59:24.448Z,39.87
2018-11-22T22:01:49.927Z,39.90
2018-11-22T22:04:14.615Z,40.40
2018-11-22T22:06:58.684Z,38.17
2018-11-22T22:09:42.705Z,39.20
2018-11-22T22:12:07.811Z,39.27
2018-11-22T22:14:32.964Z,40.63
2018-11-22T22:16:58.116Z,40.03
2018-11-22T22:19:23.228Z,39.67
2018-11-22T22:21:48.292Z,39.47
2018-11-22T22:24:13.401Z,40.17
2018-11-22T22:26:38.500Z,38.63
2018-11-22T22:29:03.649Z,39.97
2018-11-22T22:34:04.802Z,39.70
2018-11-22T22:36:29.863Z,40.10
2018-11-22T22:38:54.934Z,40.20
2018-11-22T22:41:20.041Z,39.90
2018-11-22T22:43:45.127Z,40.13
2018-11-22T22:46:10.316Z,40.33
2018-11-22T22:48:35.443Z,40.37
2018-11-22T22:51:00.537Z,40.07
2018-11-22T22:53:25.616Z,40.80
2018-11-22T22:55:50.706Z,41.23
2018-11-22T22:58:15.787Z,39.70
2018-11-22T23:00:59.581Z,39.23
2018-11-22T23:03:43.657Z,39.20
2018-11-22T23:06:27.704Z,39.87
2018-11-22T23:09:13.268Z,38.67
2018-11-22T23:11:38.709Z,39.30
2018-11-22T23:14:03.779Z,40.33
2018-11-22T23:16:28.858Z,40.17
2018-11-22T23:18:53.919Z,39.63
2018-11-22T23:21:19.030Z,40.30
2018-11-22T23:23:44.155Z,41.63
2018-11-22T23:26:09.232Z,39.77
2018-11-22T23:28:34.324Z,39.87
2018-11-22T23:30:59.382Z,38.47
2018-11-22T23:33:24.471Z,39.37
2018-11-22T23:35:49.529Z,39.13
2018-11-22T23:38:14.640Z,40.20
2018-11-22T23:40:39.710Z,39.70
2018-11-22T23:43:04.836Z,39.67
2018-11-22T23:45:30.989Z,39.90
2018-11-22T23:47:56.087Z,40.27
2018-11-22T23:50:22.543Z,39.90
2018-11-22T23:52:48.839Z,39.10
2018-11-22T23:55:13.961Z,39.23
2018-11-22T23:57:39.339Z,39.57
